sensor_id;sensor_type;location;lat;lon;timestamp;temperature;humidity
18191;DHT22;47004;51.366;12.348;2023-03-14T00:00:50;10.70;99.90
18191;DHT22;47004;51.366;12.348;2023-03-14T00:02:53;10.70;99.90
18191;DHT22;47004;51.366;12.348;2023-03-14T00:04:55;10.70;99.90
18191;DHT22;47004;51.366;12.348;2023-03-14T00:06:57;10.70;99.90
18191;DHT22;47004;51.366;12.348;2023-03-14T00:09:01;10.70;99.90
18191;DHT22;47004;51.366;12.348;2023-03-14T00:11:07;10.60;99.90
18191;DHT22;47004;51.366;12.348;2023-03-14T00:13:09;10.60;99.90
18191;DHT22;47004;51.366;12.348;2023-03-14T00:15:12;10.60;99.90
18191;DHT22;47004;51.366;12.348;2023-03-14T00:17:14;10.60;99.90
18191;DHT22;47004;51.366;12.348;2023-03-14T00:19:16;10.60;99.90
18191;DHT22;47004;51.366;12.348;2023-03-14T00:21:18;10.60;99.90
18191;DHT22;47004;51.366;12.348;2023-03-14T00:23:20;10.60;99.90
18191;DHT22;47004;51.366;12.348;2023-03-14T00:25:23;10.60;99.90
18191;DHT22;47004;51.366;12.348;2023-03-14T00:27:25;10.60;99.90
18191;DHT22;47004;51.366;12.348;2023-03-14T00:29:27;10.60;99.90
18191;DHT22;47004;51.366;12.348;2023-03-14T00:31:29;10.60;99.90
18191;DHT22;47004;51.366;12.348;2023-03-14T00:33:31;10.60;99.90
18191;DHT22;47004;51.366;12.348;2023-03-14T00:35:33;10.50;99.90
18191;DHT22;47004;51.366;12.348;2023-03-14T00:37:35;10.50;99.90
18191;DHT22;47004;51.366;12.348;2023-03-14T00:39:37;10.90;99.90
18191;DHT22;47004;51.366;12.348;2023-03-14T00:41:40;10.50;99.90
18191;DHT22;47004;51.366;12.348;2023-03-14T00:43:42;10.50;99.90
18191;DHT22;47004;51.366;12.348;2023-03-14T00:45:44;10.50;99.90
18191;DHT22;47004;51.366;12.348;2023-03-14T00:47:46;10.50;99.90
18191;DHT22;47004;51.366;12.348;2023-03-14T00:49:48;10.50;99.90
18191;DHT22;47004;51.366;12.348;2023-03-14T00:51:50;10.50;99.90
18191;DHT22;47004;51.366;12.348;2023-03-14T00:53:52;10.50;99.90
18191;DHT22;47004;51.366;12.348;2023-03-14T00:55:54;10.50;99.90
18191;DHT22;47004;51.366;12.348;2023-03-14T00:57:57;10.50;99.90
18191;DHT22;47004;51.366;12.348;2023-03-14T00:59:59;10.50;99.90
18191;DHT22;47004;51.366;12.348;2023-03-14T01:02:01;10.50;99.90
18191;DHT22;47004;51.366;12.348;2023-03-14T01:04:03;10.50;99.90
18191;DHT22;47004;51.366;12.348;2023-03-14T01:06:10;10.50;99.90
18191;DHT22;47004;51.366;12.348;2023-03-14T01:08:12;10.50;99.90
18191;DHT22;47004;51.366;12.348;2023-03-14T01:10:14;10.50;99.90
18191;DHT22;47004;51.366;12.348;2023-03-14T01:12:16;10.50;99.90
18191;DHT22;47004;51.366;12.348;2023-03-14T01:14:19;10.50;99.90
18191;DHT22;47004;51.366;12.348;2023-03-14T01:16:23;10.50;99.90
18191;DHT22;47004;51.366;12.348;2023-03-14T01:18:25;10.50;99.90
18191;DHT22;47004;51.366;12.348;2023-03-14T01:20:27;10.50;99.90
18191;DHT22;47004;51.366;12.348;2023-03-14T01:22:29;10.60;99.90
18191;DHT22;47004;51.366;12.348;2023-03-14T01:24:31;10.60;99.90
18191;DHT22;47004;51.366;12.348;2023-03-14T01:26:34;10.60;99.90
18191;DHT22;47004;51.366;12.348;2023-03-14T01:28:36;10.60;99.90
18191;DHT22;47004;51.366;12.348;2023-03-14T01:30:39;10.60;99.90
18191;DHT22;47004;51.366;12.348;2023-03-14T01:32:41;10.60;99.90
18191;DHT22;47004;51.366;12.348;2023-03-14T01:34:43;10.70;99.90
18191;DHT22;47004;51.366;12.348;2023-03-14T01:36:45;10.70;99.90
18191;DHT22;47004;51.366;12.348;2023-03-14T01:38:47;10.70;99.90
18191;DHT22;47004;51.366;12.348;2023-03-14T01:40:49;10.70;99.90
18191;DHT22;47004;51.366;12.348;2023-03-14T01:42:55;10.80;99.90
18191;DHT22;47004;51.366;12.348;2023-03-14T01:44:59;10.80;99.90
18191;DHT22;47004;51.366;12.348;2023-03-14T01:47:02;10.80;99.90
18191;DHT22;47004;51.366;12.348;2023-03-14T01:49:21;10.90;99.90
18191;DHT22;47004;51.366;12.348;2023-03-14T01:51:29;10.90;99.90
18191;DHT22;47004;51.366;12.348;2023-03-14T01:53:32;10.90;99.90
18191;DHT22;47004;51.366;12.348;2023-03-14T01:55:34;10.80;99.90
18191;DHT22;47004;51.366;12.348;2023-03-14T01:57:39;10.90;99.90
18191;DHT22;47004;51.366;12.348;2023-03-14T01:59:46;10.90;99.90
18191;DHT22;47004;51.366;12.348;2023-03-14T02:01:51;10.90;99.90
18191;DHT22;47004;51.366;12.348;2023-03-14T02:03:57;10.90;99.90
18191;DHT22;47004;51.366;12.348;2023-03-14T02:06:05;10.90;99.90
18191;DHT22;47004;51.366;12.348;2023-03-14T02:08:11;10.90;99.90
18191;DHT22;47004;51.366;12.348;2023-03-14T02:10:15;10.80;99.90
18191;DHT22;47004;51.366;12.348;2023-03-14T02:12:20;10.80;99.90
18191;DHT22;47004;51.366;12.348;2023-03-14T02:14:29;10.80;99.90
18191;DHT22;47004;51.366;12.348;2023-03-14T02:16:31;10.80;99.90
18191;DHT22;47004;51.366;12.348;2023-03-14T02:18:33;10.80;99.90
18191;DHT22;47004;51.366;12.348;2023-03-14T02:20:42;10.80;99.90
18191;DHT22;47004;51.366;12.348;2023-03-14T02:22:47;10.80;99.90
18191;DHT22;47004;51.366;12.348;2023-03-14T02:24:57;10.80;99.90
18191;DHT22;47004;51.366;12.348;2023-03-14T02:27:08;10.80;99.90
18191;DHT22;47004;51.366;12.348;2023-03-14T02:29:11;10.70;99.90
18191;DHT22;47004;51.366;12.348;2023-03-14T02:31:13;10.70;99.90
18191;DHT22;47004;51.366;12.348;2023-03-14T02:33:17;10.70;99.90
18191;DHT22;47004;51.366;12.348;2023-03-14T02:35:22;10.70;99.90
18191;DHT22;47004;51.366;12.348;2023-03-14T02:37:27;10.70;99.90
18191;DHT22;47004;51.366;12.348;2023-03-14T02:39:36;10.70;99.90
18191;DHT22;47004;51.366;12.348;2023-03-14T02:41:39;10.70;99.90
18191;DHT22;47004;51.366;12.348;2023-03-14T02:43:44;10.70;99.90
18191;DHT22;47004;51.366;12.348;2023-03-14T02:45:47;10.70;99.90
18191;DHT22;47004;51.366;12.348;2023-03-14T02:47:52;10.60;99.90
18191;DHT22;47004;51.366;12.348;2023-03-14T02:49:59;10.60;99.90
18191;DHT22;47004;51.366;12.348;2023-03-14T02:52:04;10.60;99.90
18191;DHT22;47004;51.366;12.348;2023-03-14T02:54:07;10.70;99.90
18191;DHT22;47004;51.366;12.348;2023-03-14T02:56:09;10.60;99.90
18191;DHT22;47004;51.366;12.348;2023-03-14T02:58:11;10.60;99.90
18191;DHT22;47004;51.366;12.348;2023-03-14T03:00:16;10.60;99.90
18191;DHT22;47004;51.366;12.348;2023-03-14T03:02:18;10.60;99.90
18191;DHT22;47004;51.366;12.348;2023-03-14T03:04:20;10.60;99.90
18191;DHT22;47004;51.366;12.348;2023-03-14T03:06:22;10.60;99.90
18191;DHT22;47004;51.366;12.348;2023-03-14T03:08:25;10.60;99.90
18191;DHT22;47004;51.366;12.348;2023-03-14T03:10:28;10.60;99.90
18191;DHT22;47004;51.366;12.348;2023-03-14T03:12:30;10.60;99.90
18191;DHT22;47004;51.366;12.348;2023-03-14T03:14:32;10.60;99.90
18191;DHT22;47004;51.366;12.348;2023-03-14T03:16:38;10.60;99.90
18191;DHT22;47004;51.366;12.348;2023-03-14T03:18:40;10.60;99.90
18191;DHT22;47004;51.366;12.348;2023-03-14T03:20:42;10.70;99.90
18191;DHT22;47004;51.366;12.348;2023-03-14T03:22:44;10.70;99.90
18191;DHT22;47004;51.366;12.348;2023-03-14T03:24:46;10.70;99.90
18191;DHT22;47004;51.366;12.348;2023-03-14T03:26:48;10.70;99.90
18191;DHT22;47004;51.366;12.348;2023-03-14T03:28:50;10.70;99.90
18191;DHT22;47004;51.366;12.348;2023-03-14T03:30:52;10.70;99.90
18191;DHT22;47004;51.366;12.348;2023-03-14T03:32:55;10.70;99.90
18191;DHT22;47004;51.366;12.348;2023-03-14T03:34:57;10.70;99.90
18191;DHT22;47004;51.366;12.348;2023-03-14T03:36:59;10.70;99.90
18191;DHT22;47004;51.366;12.348;2023-03-14T03:39:01;10.70;99.90
18191;DHT22;47004;51.366;12.348;2023-03-14T03:41:05;10.70;99.90
18191;DHT22;47004;51.366;12.348;2023-03-14T03:43:07;10.70;99.90
18191;DHT22;47004;51.366;12.348;2023-03-14T03:45:09;10.70;99.90
18191;DHT22;47004;51.366;12.348;2023-03-14T03:47:11;10.70;99.90
18191;DHT22;47004;51.366;12.348;2023-03-14T03:49:15;10.70;99.90
18191;DHT22;47004;51.366;12.348;2023-03-14T03:51:16;10.80;99.90
18191;DHT22;47004;51.366;12.348;2023-03-14T03:53:18;10.80;99.90
18191;DHT22;47004;51.366;12.348;2023-03-14T03:55:20;10.80;99.90
18191;DHT22;47004;51.366;12.348;2023-03-14T03:57:22;10.80;99.90
18191;DHT22;47004;51.366;12.348;2023-03-14T03:59:24;10.80;99.90
18191;DHT22;47004;51.366;12.348;2023-03-14T04:01:26;10.80;99.90
18191;DHT22;47004;51.366;12.348;2023-03-14T04:03:28;10.80;99.90
18191;DHT22;47004;51.366;12.348;2023-03-14T04:05:31;10.80;99.90
18191;DHT22;47004;51.366;12.348;2023-03-14T04:07:34;10.80;99.90
18191;DHT22;47004;51.366;12.348;2023-03-14T04:09:37;10.80;99.90
18191;DHT22;47004;51.366;12.348;2023-03-14T04:11:39;10.80;99.90
18191;DHT22;47004;51.366;12.348;2023-03-14T04:13:42;10.80;99.90
18191;DHT22;47004;51.366;12.348;2023-03-14T04:15:46;10.60;99.90
18191;DHT22;47004;51.366;12.348;2023-03-14T04:17:48;11.20;99.90
18191;DHT22;47004;51.366;12.348;2023-03-14T04:19:52;10.80;99.90
18191;DHT22;47004;51.366;12.348;2023-03-14T04:21:55;10.70;99.90
18191;DHT22;47004;51.366;12.348;2023-03-14T04:23:57;11.00;99.90
18191;DHT22;47004;51.366;12.348;2023-03-14T04:25:59;10.80;99.90
18191;DHT22;47004;51.366;12.348;2023-03-14T04:28:02;10.80;99.90
18191;DHT22;47004;51.366;12.348;2023-03-14T04:30:08;10.80;99.90
18191;DHT22;47004;51.366;12.348;2023-03-14T04:32:10;10.80;99.90
18191;DHT22;47004;51.366;12.348;2023-03-14T04:34:12;10.80;99.90
18191;DHT22;47004;51.366;12.348;2023-03-14T04:36:14;11.20;99.90
18191;DHT22;47004;51.366;12.348;2023-03-14T04:38:17;10.80;99.90
18191;DHT22;47004;51.366;12.348;2023-03-14T04:40:19;10.80;99.90
18191;DHT22;47004;51.366;12.348;2023-03-14T04:42:24;10.80;99.90
18191;DHT22;47004;51.366;12.348;2023-03-14T04:44:26;10.80;99.90
18191;DHT22;47004;51.366;12.348;2023-03-14T04:46:28;10.80;99.90
18191;DHT22;47004;51.366;12.348;2023-03-14T04:48:30;10.80;99.90
18191;DHT22;47004;51.366;12.348;2023-03-14T04:50:32;10.70;99.90
18191;DHT22;47004;51.366;12.348;2023-03-14T04:52:34;10.70;99.90
18191;DHT22;47004;51.366;12.348;2023-03-14T04:54:37;10.70;99.90
18191;DHT22;47004;51.366;12.348;2023-03-14T04:56:39;10.70;99.90
18191;DHT22;47004;51.366;12.348;2023-03-14T04:58:41;10.70;99.90
18191;DHT22;47004;51.366;12.348;2023-03-14T05:00:44;10.70;99.90
18191;DHT22;47004;51.366;12.348;2023-03-14T05:02:46;10.70;99.90
18191;DHT22;47004;51.366;12.348;2023-03-14T05:04:48;10.70;99.90
18191;DHT22;47004;51.366;12.348;2023-03-14T05:06:50;10.60;99.90
18191;DHT22;47004;51.366;12.348;2023-03-14T05:08:52;10.60;99.90
18191;DHT22;47004;51.366;12.348;2023-03-14T05:10:56;10.60;99.90
18191;DHT22;47004;51.366;12.348;2023-03-14T05:12:59;10.60;99.90
18191;DHT22;47004;51.366;12.348;2023-03-14T05:15:01;10.60;99.90
18191;DHT22;47004;51.366;12.348;2023-03-14T05:17:02;10.60;99.90
18191;DHT22;47004;51.366;12.348;2023-03-14T05:19:04;10.50;99.90
18191;DHT22;47004;51.366;12.348;2023-03-14T05:21:09;10.50;99.90
18191;DHT22;47004;51.366;12.348;2023-03-14T05:23:11;10.50;99.90
18191;DHT22;47004;51.366;12.348;2023-03-14T05:25:13;10.50;99.90
18191;DHT22;47004;51.366;12.348;2023-03-14T05:27:17;10.50;99.90
18191;DHT22;47004;51.366;12.348;2023-03-14T05:29:19;10.50;99.90
18191;DHT22;47004;51.366;12.348;2023-03-14T05:31:21;10.50;99.90
18191;DHT22;47004;51.366;12.348;2023-03-14T05:33:23;10.50;99.90
18191;DHT22;47004;51.366;12.348;2023-03-14T05:35:25;10.40;99.90
18191;DHT22;47004;51.366;12.348;2023-03-14T05:37:27;10.40;99.90
18191;DHT22;47004;51.366;12.348;2023-03-14T05:39:29;10.40;99.90
18191;DHT22;47004;51.366;12.348;2023-03-14T05:41:31;10.40;99.90
18191;DHT22;47004;51.366;12.348;2023-03-14T05:43:34;10.40;99.90
18191;DHT22;47004;51.366;12.348;2023-03-14T05:45:36;10.40;99.90
18191;DHT22;47004;51.366;12.348;2023-03-14T05:47:41;10.40;99.90
18191;DHT22;47004;51.366;12.348;2023-03-14T05:49:46;10.40;99.90
18191;DHT22;47004;51.366;12.348;2023-03-14T05:51:49;10.40;99.90
18191;DHT22;47004;51.366;12.348;2023-03-14T05:53:51;10.40;99.90
18191;DHT22;47004;51.366;12.348;2023-03-14T05:55:53;10.40;99.90
18191;DHT22;47004;51.366;12.348;2023-03-14T05:57:55;10.50;99.90
18191;DHT22;47004;51.366;12.348;2023-03-14T05:59:59;10.50;99.90
18191;DHT22;47004;51.366;12.348;2023-03-14T06:02:01;10.50;99.90
18191;DHT22;47004;51.366;12.348;2023-03-14T06:04:03;10.50;99.90
18191;DHT22;47004;51.366;12.348;2023-03-14T06:06:05;10.50;99.90
18191;DHT22;47004;51.366;12.348;2023-03-14T06:08:10;10.60;99.90
18191;DHT22;47004;51.366;12.348;2023-03-14T06:10:12;10.60;99.90
18191;DHT22;47004;51.366;12.348;2023-03-14T06:12:14;10.60;99.90
18191;DHT22;47004;51.366;12.348;2023-03-14T06:14:16;10.60;99.90
18191;DHT22;47004;51.366;12.348;2023-03-14T06:16:20;10.60;99.90
18191;DHT22;47004;51.366;12.348;2023-03-14T06:18:22;10.60;99.90
18191;DHT22;47004;51.366;12.348;2023-03-14T06:20:24;10.40;99.90
18191;DHT22;47004;51.366;12.348;2023-03-14T06:22:26;10.60;99.90
18191;DHT22;47004;51.366;12.348;2023-03-14T06:24:28;10.70;99.90
18191;DHT22;47004;51.366;12.348;2023-03-14T06:26:30;10.70;99.90
18191;DHT22;47004;51.366;12.348;2023-03-14T06:28:32;10.70;99.90
18191;DHT22;47004;51.366;12.348;2023-03-14T06:30:33;10.70;99.90
18191;DHT22;47004;51.366;12.348;2023-03-14T06:32:37;10.70;99.90
18191;DHT22;47004;51.366;12.348;2023-03-14T06:34:39;10.70;99.90
18191;DHT22;47004;51.366;12.348;2023-03-14T06:36:41;10.70;99.90
18191;DHT22;47004;51.366;12.348;2023-03-14T06:38:43;10.70;99.90
18191;DHT22;47004;51.366;12.348;2023-03-14T06:40:45;10.70;99.90
18191;DHT22;47004;51.366;12.348;2023-03-14T06:42:47;10.70;99.90
18191;DHT22;47004;51.366;12.348;2023-03-14T06:44:52;10.70;99.90
18191;DHT22;47004;51.366;12.348;2023-03-14T06:46:56;10.70;99.90
18191;DHT22;47004;51.366;12.348;2023-03-14T06:49:00;10.70;99.90
18191;DHT22;47004;51.366;12.348;2023-03-14T06:51:05;10.70;99.90
18191;DHT22;47004;51.366;12.348;2023-03-14T06:53:07;10.70;99.90
18191;DHT22;47004;51.366;12.348;2023-03-14T06:55:09;10.70;99.90
18191;DHT22;47004;51.366;12.348;2023-03-14T06:57:11;10.70;99.90
18191;DHT22;47004;51.366;12.348;2023-03-14T06:59:13;10.70;99.90
18191;DHT22;47004;51.366;12.348;2023-03-14T07:01:21;10.80;99.90
18191;DHT22;47004;51.366;12.348;2023-03-14T07:03:23;10.70;99.90
18191;DHT22;47004;51.366;12.348;2023-03-14T07:05:27;10.70;99.90
18191;DHT22;47004;51.366;12.348;2023-03-14T07:07:30;10.70;99.90
18191;DHT22;47004;51.366;12.348;2023-03-14T07:09:32;10.70;99.90
18191;DHT22;47004;51.366;12.348;2023-03-14T07:11:34;10.70;99.90
18191;DHT22;47004;51.366;12.348;2023-03-14T07:13:36;10.70;99.90
18191;DHT22;47004;51.366;12.348;2023-03-14T07:15:38;10.70;99.90
18191;DHT22;47004;51.366;12.348;2023-03-14T07:17:40;10.70;99.90
18191;DHT22;47004;51.366;12.348;2023-03-14T07:19:42;10.80;99.90
18191;DHT22;47004;51.366;12.348;2023-03-14T07:21:45;10.80;99.90
18191;DHT22;47004;51.366;12.348;2023-03-14T07:23:47;10.80;99.90
18191;DHT22;47004;51.366;12.348;2023-03-14T07:25:51;10.80;99.90
18191;DHT22;47004;51.366;12.348;2023-03-14T07:27:54;10.90;99.90
18191;DHT22;47004;51.366;12.348;2023-03-14T07:29:56;10.90;99.90
18191;DHT22;47004;51.366;12.348;2023-03-14T07:31:57;10.90;99.90
18191;DHT22;47004;51.366;12.348;2023-03-14T07:33:59;10.90;99.90
18191;DHT22;47004;51.366;12.348;2023-03-14T07:36:01;11.00;99.90
18191;DHT22;47004;51.366;12.348;2023-03-14T07:38:05;11.00;99.90
18191;DHT22;47004;51.366;12.348;2023-03-14T07:40:08;11.10;99.90
18191;DHT22;47004;51.366;12.348;2023-03-14T07:42:11;11.10;99.90
18191;DHT22;47004;51.366;12.348;2023-03-14T07:44:13;11.10;99.90
18191;DHT22;47004;51.366;12.348;2023-03-14T07:46:15;11.20;99.90
18191;DHT22;47004;51.366;12.348;2023-03-14T07:48:18;11.20;99.90
18191;DHT22;47004;51.366;12.348;2023-03-14T07:50:19;11.20;99.90
18191;DHT22;47004;51.366;12.348;2023-03-14T07:52:21;11.20;99.90
18191;DHT22;47004;51.366;12.348;2023-03-14T07:54:25;11.20;99.90
18191;DHT22;47004;51.366;12.348;2023-03-14T07:56:27;11.20;99.90
18191;DHT22;47004;51.366;12.348;2023-03-14T07:58:29;11.20;99.90
18191;DHT22;47004;51.366;12.348;2023-03-14T08:00:31;11.20;99.90
18191;DHT22;47004;51.366;12.348;2023-03-14T08:02:33;11.20;99.90
18191;DHT22;47004;51.366;12.348;2023-03-14T08:04:36;11.20;99.90
18191;DHT22;47004;51.366;12.348;2023-03-14T08:06:38;11.30;99.90
18191;DHT22;47004;51.366;12.348;2023-03-14T08:08:40;11.30;99.90
18191;DHT22;47004;51.366;12.348;2023-03-14T08:10:43;11.40;99.90
18191;DHT22;47004;51.366;12.348;2023-03-14T08:12:46;11.40;99.90
18191;DHT22;47004;51.366;12.348;2023-03-14T08:14:48;11.40;99.90
18191;DHT22;47004;51.366;12.348;2023-03-14T08:16:50;11.40;99.90
18191;DHT22;47004;51.366;12.348;2023-03-14T08:18:54;11.40;99.90
18191;DHT22;47004;51.366;12.348;2023-03-14T08:20:56;11.40;99.90
18191;DHT22;47004;51.366;12.348;2023-03-14T08:22:59;11.40;99.90
18191;DHT22;47004;51.366;12.348;2023-03-14T08:25:02;11.50;99.90
18191;DHT22;47004;51.366;12.348;2023-03-14T08:27:08;11.60;99.90
18191;DHT22;47004;51.366;12.348;2023-03-14T08:29:11;11.60;99.90
18191;DHT22;47004;51.366;12.348;2023-03-14T08:31:13;11.70;99.90
18191;DHT22;47004;51.366;12.348;2023-03-14T08:33:15;11.80;99.90
18191;DHT22;47004;51.366;12.348;2023-03-14T08:35:17;11.90;99.90
18191;DHT22;47004;51.366;12.348;2023-03-14T08:37:19;12.00;99.90
18191;DHT22;47004;51.366;12.348;2023-03-14T08:39:21;12.10;99.90
18191;DHT22;47004;51.366;12.348;2023-03-14T08:41:23;12.20;99.90
18191;DHT22;47004;51.366;12.348;2023-03-14T08:43:27;12.20;99.90
18191;DHT22;47004;51.366;12.348;2023-03-14T08:45:29;12.30;99.90
18191;DHT22;47004;51.366;12.348;2023-03-14T08:47:31;12.30;99.90
18191;DHT22;47004;51.366;12.348;2023-03-14T08:49:33;12.40;99.90
18191;DHT22;47004;51.366;12.348;2023-03-14T08:51:38;12.50;99.90
18191;DHT22;47004;51.366;12.348;2023-03-14T08:53:40;12.50;99.90
18191;DHT22;47004;51.366;12.348;2023-03-14T08:55:42;12.60;99.90
18191;DHT22;47004;51.366;12.348;2023-03-14T08:57:45;12.60;99.90
18191;DHT22;47004;51.366;12.348;2023-03-14T08:59:49;12.60;99.90
18191;DHT22;47004;51.366;12.348;2023-03-14T09:01:50;12.70;99.90
18191;DHT22;47004;51.366;12.348;2023-03-14T09:03:52;12.70;99.90
18191;DHT22;47004;51.366;12.348;2023-03-14T09:05:54;12.60;99.90
18191;DHT22;47004;51.366;12.348;2023-03-14T09:07:56;12.70;99.90
18191;DHT22;47004;51.366;12.348;2023-03-14T09:09:58;12.70;99.90
18191;DHT22;47004;51.366;12.348;2023-03-14T09:12:00;12.80;99.90
18191;DHT22;47004;51.366;12.348;2023-03-14T09:14:02;12.80;99.90
18191;DHT22;47004;51.366;12.348;2023-03-14T09:16:06;12.90;99.90
18191;DHT22;47004;51.366;12.348;2023-03-14T09:18:08;12.90;99.90
18191;DHT22;47004;51.366;12.348;2023-03-14T09:20:11;12.90;99.90
18191;DHT22;47004;51.366;12.348;2023-03-14T09:22:14;12.90;99.90
18191;DHT22;47004;51.366;12.348;2023-03-14T09:24:16;13.00;99.90
18191;DHT22;47004;51.366;12.348;2023-03-14T09:26:18;13.00;99.90
18191;DHT22;47004;51.366;12.348;2023-03-14T09:28:21;13.00;99.90
18191;DHT22;47004;51.366;12.348;2023-03-14T09:30:22;12.90;99.90
18191;DHT22;47004;51.366;12.348;2023-03-14T09:32:26;12.90;99.90
18191;DHT22;47004;51.366;12.348;2023-03-14T09:34:28;12.90;99.90
18191;DHT22;47004;51.366;12.348;2023-03-14T09:36:30;12.90;99.90
18191;DHT22;47004;51.366;12.348;2023-03-14T09:38:32;12.90;99.90
18191;DHT22;47004;51.366;12.348;2023-03-14T09:40:35;12.90;99.90
18191;DHT22;47004;51.366;12.348;2023-03-14T09:42:38;13.00;99.90
18191;DHT22;47004;51.366;12.348;2023-03-14T09:44:47;13.00;99.90
18191;DHT22;47004;51.366;12.348;2023-03-14T09:46:53;13.00;99.90
18191;DHT22;47004;51.366;12.348;2023-03-14T09:48:57;13.10;99.90
18191;DHT22;47004;51.366;12.348;2023-03-14T09:51:02;13.10;99.90
18191;DHT22;47004;51.366;12.348;2023-03-14T09:53:09;13.10;99.90
18191;DHT22;47004;51.366;12.348;2023-03-14T09:55:15;13.20;99.90
18191;DHT22;47004;51.366;12.348;2023-03-14T09:57:18;13.20;99.90
18191;DHT22;47004;51.366;12.348;2023-03-14T09:59:21;13.20;99.90
18191;DHT22;47004;51.366;12.348;2023-03-14T10:01:26;13.20;99.90
18191;DHT22;47004;51.366;12.348;2023-03-14T10:03:31;13.20;99.90
18191;DHT22;47004;51.366;12.348;2023-03-14T10:05:34;13.20;99.90
18191;DHT22;47004;51.366;12.348;2023-03-14T10:07:36;13.20;99.90
18191;DHT22;47004;51.366;12.348;2023-03-14T10:09:38;13.20;99.90
18191;DHT22;47004;51.366;12.348;2023-03-14T10:11:40;13.20;99.90
18191;DHT22;47004;51.366;12.348;2023-03-14T10:14:04;13.20;99.90
18191;DHT22;47004;51.366;12.348;2023-03-14T10:16:07;13.20;99.90
18191;DHT22;47004;51.366;12.348;2023-03-14T10:18:11;13.10;99.90
18191;DHT22;47004;51.366;12.348;2023-03-14T10:20:31;13.20;99.90
18191;DHT22;47004;51.366;12.348;2023-03-14T10:22:37;13.10;99.90
18191;DHT22;47004;51.366;12.348;2023-03-14T10:24:45;13.10;99.90
18191;DHT22;47004;51.366;12.348;2023-03-14T10:26:53;13.10;99.90
18191;DHT22;47004;51.366;12.348;2023-03-14T10:29:02;13.10;99.90
18191;DHT22;47004;51.366;12.348;2023-03-14T10:31:06;13.00;99.90
18191;DHT22;47004;51.366;12.348;2023-03-14T10:33:10;13.10;99.90
18191;DHT22;47004;51.366;12.348;2023-03-14T10:35:20;13.10;99.90
18191;DHT22;47004;51.366;12.348;2023-03-14T10:37:24;13.20;99.90
18191;DHT22;47004;51.366;12.348;2023-03-14T10:39:41;13.30;99.90
18191;DHT22;47004;51.366;12.348;2023-03-14T10:41:47;13.30;99.90
18191;DHT22;47004;51.366;12.348;2023-03-14T10:43:51;13.40;99.90
18191;DHT22;47004;51.366;12.348;2023-03-14T10:45:58;13.40;99.90
18191;DHT22;47004;51.366;12.348;2023-03-14T10:48:13;13.50;99.90
18191;DHT22;47004;51.366;12.348;2023-03-14T10:50:25;13.50;99.90
18191;DHT22;47004;51.366;12.348;2023-03-14T10:52:28;13.50;99.90
18191;DHT22;47004;51.366;12.348;2023-03-14T10:54:33;13.50;99.90
18191;DHT22;47004;51.366;12.348;2023-03-14T10:56:36;13.50;99.90
18191;DHT22;47004;51.366;12.348;2023-03-14T10:58:41;13.50;99.90
18191;DHT22;47004;51.366;12.348;2023-03-14T11:00:44;13.50;99.90
18191;DHT22;47004;51.366;12.348;2023-03-14T11:02:58;13.50;99.90
18191;DHT22;47004;51.366;12.348;2023-03-14T11:05:14;13.40;99.90
18191;DHT22;47004;51.366;12.348;2023-03-14T11:07:23;13.40;99.90
18191;DHT22;47004;51.366;12.348;2023-03-14T11:09:33;13.30;99.90
18191;DHT22;47004;51.366;12.348;2023-03-14T11:11:39;13.30;99.90
18191;DHT22;47004;51.366;12.348;2023-03-14T11:13:53;13.30;99.90
18191;DHT22;47004;51.366;12.348;2023-03-14T11:16:01;13.30;99.90
18191;DHT22;47004;51.366;12.348;2023-03-14T11:18:19;13.30;99.90
18191;DHT22;47004;51.366;12.348;2023-03-14T11:20:33;13.30;99.90
18191;DHT22;47004;51.366;12.348;2023-03-14T11:22:41;13.30;99.90
18191;DHT22;47004;51.366;12.348;2023-03-14T11:27:17;13.40;99.90
18191;DHT22;47004;51.366;12.348;2023-03-14T11:29:21;13.40;99.90
18191;DHT22;47004;51.366;12.348;2023-03-14T11:31:28;13.40;99.90
18191;DHT22;47004;51.366;12.348;2023-03-14T11:33:35;13.40;99.90
18191;DHT22;47004;51.366;12.348;2023-03-14T11:35:43;13.40;99.90
18191;DHT22;47004;51.366;12.348;2023-03-14T11:37:52;13.40;99.90
18191;DHT22;47004;51.366;12.348;2023-03-14T11:40:01;13.30;99.90
18191;DHT22;47004;51.366;12.348;2023-03-14T11:42:11;13.30;99.90
18191;DHT22;47004;51.366;12.348;2023-03-14T11:44:17;13.30;99.90
18191;DHT22;47004;51.366;12.348;2023-03-14T11:46:24;13.30;99.90
18191;DHT22;47004;51.366;12.348;2023-03-14T11:48:36;13.30;99.90
18191;DHT22;47004;51.366;12.348;2023-03-14T11:50:41;13.30;99.90
18191;DHT22;47004;51.366;12.348;2023-03-14T11:52:47;13.30;99.90
18191;DHT22;47004;51.366;12.348;2023-03-14T11:54:52;13.40;99.90
18191;DHT22;47004;51.366;12.348;2023-03-14T11:56:59;13.40;99.90
18191;DHT22;47004;51.366;12.348;2023-03-14T11:59:07;13.40;99.90
18191;DHT22;47004;51.366;12.348;2023-03-14T12:01:14;13.50;99.90
18191;DHT22;47004;51.366;12.348;2023-03-14T12:03:26;13.50;99.90
18191;DHT22;47004;51.366;12.348;2023-03-14T12:08:30;13.50;99.90
18191;DHT22;47004;51.366;12.348;2023-03-14T12:10:37;13.50;99.90
18191;DHT22;47004;51.366;12.348;2023-03-14T12:12:41;13.50;99.90
18191;DHT22;47004;51.366;12.348;2023-03-14T12:14:52;13.50;99.90
18191;DHT22;47004;51.366;12.348;2023-03-14T12:16:57;13.40;99.90
18191;DHT22;47004;51.366;12.348;2023-03-14T12:19:14;13.30;99.90
18191;DHT22;47004;51.366;12.348;2023-03-14T12:21:18;13.30;99.90
18191;DHT22;47004;51.366;12.348;2023-03-14T12:23:22;13.30;99.90
18191;DHT22;47004;51.366;12.348;2023-03-14T12:25:26;13.30;99.90
18191;DHT22;47004;51.366;12.348;2023-03-14T12:27:44;13.30;99.90
18191;DHT22;47004;51.366;12.348;2023-03-14T12:29:59;13.30;99.90
18191;DHT22;47004;51.366;12.348;2023-03-14T12:32:22;13.00;99.90
18191;DHT22;47004;51.366;12.348;2023-03-14T12:34:27;12.60;99.90
18191;DHT22;47004;51.366;12.348;2023-03-14T12:36:51;12.40;99.90
18191;DHT22;47004;51.366;12.348;2023-03-14T12:39:04;12.30;99.90
18191;DHT22;47004;51.366;12.348;2023-03-14T12:41:15;12.20;99.90
18191;DHT22;47004;51.366;12.348;2023-03-14T12:43:30;12.30;99.90
18191;DHT22;47004;51.366;12.348;2023-03-14T12:45:34;12.40;99.90
18191;DHT22;47004;51.366;12.348;2023-03-14T12:48:03;12.40;99.90
18191;DHT22;47004;51.366;12.348;2023-03-14T12:50:13;12.60;99.90
18191;DHT22;47004;51.366;12.348;2023-03-14T12:52:18;12.70;99.90
18191;DHT22;47004;51.366;12.348;2023-03-14T12:54:39;12.80;99.90
18191;DHT22;47004;51.366;12.348;2023-03-14T12:57:04;12.80;99.90